Time;durP1;ratioP1;P1;durP2;ratioP2;P2;SDS_P1;SDS_P2;PMS_P1;PMS_P2;Temp;Humidity;BMP_temperature;BMP_pressure;BME280_temperature;BME280_humidity;BME280_pressure;Samples;Min_cycle;Max_cycle;Signal;HPM_P1;HPM_P2
2022/09/22 00:00:25;;;;;;;;;10.00;8.50;;;;;14.19;68.11;99616.84;4975157;28;45491;-72
2022/09/22 00:02:55;;;;;;;;;12.50;11.50;;;;;14.16;68.33;99616.97;4975879;28;45494;-72
2022/09/22 00:05:22;;;;;;;;;12.25;11.00;;;;;14.13;68.10;99609.16;4973914;28;45498;-72
2022/09/22 00:07:48;;;;;;;;;12.75;10.75;;;;;14.09;67.80;99613.75;4978226;28;45388;-72
2022/09/22 00:10:14;;;;;;;;;10.00;10.00;;;;;14.08;67.96;99617.31;4978994;28;45470;-72
2022/09/22 00:12:39;;;;;;;;;8.75;8.75;;;;;14.06;68.48;99607.75;4978390;28;46262;-71
2022/09/22 00:15:05;;;;;;;;;12.50;12.00;;;;;14.04;69.16;99614.91;4960081;28;45450;-72
2022/09/22 00:17:31;;;;;;;;;10.25;9.75;;;;;14.01;69.72;99613.25;4982549;28;45285;-72
2022/09/22 00:19:56;;;;;;;;;9.25;9.25;;;;;14.00;69.72;99603.56;4979912;28;45429;-72
2022/09/22 00:22:22;;;;;;;;;10.25;10.25;;;;;13.98;69.36;99605.44;4981064;28;45424;-72
2022/09/22 00:24:47;;;;;;;;;10.50;9.25;;;;;13.97;68.75;99609.00;4960397;28;45396;-72
2022/09/22 00:27:12;;;;;;;;;9.75;9.75;;;;;13.97;68.62;99609.88;4977256;28;45692;-71
2022/09/22 00:29:38;;;;;;;;;8.25;8.25;;;;;13.96;68.44;99602.84;4975868;28;45540;-72
2022/09/22 00:32:03;;;;;;;;;11.75;10.50;;;;;13.96;68.35;99607.28;4956441;28;47843;-72
2022/09/22 00:34:28;;;;;;;;;15.00;10.25;;;;;13.96;68.34;99610.81;4977459;28;45418;-72
2022/09/22 00:36:55;;;;;;;;;10.50;10.00;;;;;13.96;68.20;99604.63;4974821;28;45423;-72
2022/09/22 00:39:20;;;;;;;;;9.50;9.50;;;;;13.97;67.95;99619.63;4965607;28;45301;-72
2022/09/22 00:41:48;;;;;;;;;10.25;8.25;;;;;13.96;68.07;99608.16;4986353;28;45467;-72
2022/09/22 00:44:28;;;;;;;;;9.00;9.00;;;;;13.98;67.62;99606.28;4983814;28;45500;-72
2022/09/22 00:46:54;;;;;;;;;10.00;8.00;;;;;13.98;67.96;99608.09;4991309;28;45436;-72
2022/09/22 00:49:30;;;;;;;;;9.75;8.00;;;;;13.96;67.97;99609.94;4977008;28;45457;-72
2022/09/22 00:51:56;;;;;;;;;7.25;7.25;;;;;13.94;67.64;99612.66;4981640;28;45407;-72
2022/09/22 00:54:21;;;;;;;;;8.50;6.00;;;;;13.92;67.70;99617.16;4978139;28;45477;-72
2022/09/22 00:56:53;;;;;;;;;10.75;9.75;;;;;13.92;67.42;99616.31;4975958;28;45475;-72
2022/09/22 00:59:23;;;;;;;;;12.00;9.25;;;;;13.90;67.60;99615.53;4964162;28;45535;-72
2022/09/22 01:01:48;;;;;;;;;11.00;10.00;;;;;13.88;67.65;99614.75;4981224;28;46339;-72
2022/09/22 01:04:16;;;;;;;;;9.50;9.25;;;;;13.87;67.53;99619.19;4969730;28;45450;-72
2022/09/22 01:06:42;;;;;;;;;9.75;9.75;;;;;13.86;67.92;99617.47;4974646;28;45432;-71
2022/09/22 01:09:08;;;;;;;;;8.00;7.00;;;;;13.86;67.88;99613.97;4994188;28;45595;-72
2022/09/22 01:11:37;;;;;;;;;9.25;9.00;;;;;13.85;68.13;99615.75;4980653;28;46257;-72
2022/09/22 01:14:20;;;;;;;;;10.75;9.00;;;;;13.85;67.64;99615.75;4986655;28;45353;-72
2022/09/22 01:17:37;;;;;;;;;9.00;9.00;;;;;13.84;67.94;99627.28;4990792;28;45466;-72
2022/09/22 01:20:33;;;;;;;;;8.75;8.75;;;;;13.83;68.11;99622.91;4956677;28;45440;-72
2022/09/22 01:23:27;;;;;;;;;8.00;8.00;;;;;13.82;68.10;99623.84;4990707;28;46357;-72
2022/09/22 01:26:21;;;;;;;;;9.75;8.50;;;;;13.81;68.40;99627.41;4981156;28;45639;-72
2022/09/22 01:29:24;;;;;;;;;11.50;9.50;;;;;13.80;68.09;99623.03;4990597;28;45387;-72
2022/09/22 01:32:16;;;;;;;;;9.00;9.00;;;;;13.80;68.13;99627.47;4962096;28;45396;-72
2022/09/22 01:34:51;;;;;;;;;11.25;11.25;;;;;13.77;68.15;99622.31;4984927;28;45425;-72
2022/09/22 01:37:23;;;;;;;;;10.50;10.00;;;;;13.75;68.11;99626.81;4982699;28;45466;-72
2022/09/22 01:40:20;;;;;;;;;9.25;9.25;;;;;13.71;68.25;99623.47;4988508;28;45469;-71
2022/09/22 01:42:56;;;;;;;;;11.00;10.00;;;;;13.70;68.02;99620.88;4946796;28;45387;-72
2022/09/22 01:45:28;;;;;;;;;9.75;9.00;;;;;13.68;67.98;99625.38;4984361;28;45524;-72
2022/09/22 01:47:58;;;;;;;;;10.25;9.25;;;;;13.67;68.29;99621.88;4977776;28;45370;-72
2022/09/22 01:50:29;;;;;;;;;8.00;7.50;;;;;13.66;68.41;99621.94;4980727;28;45418;-72
2022/09/22 01:53:00;;;;;;;;;11.75;9.75;;;;;13.65;68.82;99622.88;4983433;28;45426;-71
2022/09/22 01:55:37;;;;;;;;;9.75;8.00;;;;;13.63;68.61;99622.94;4970855;28;46190;-72
2022/09/22 01:58:10;;;;;;;;;9.75;8.50;;;;;13.61;68.81;99616.84;4980020;28;45312;-72
2022/09/22 02:00:39;;;;;;;;;9.00;8.75;;;;;13.60;69.02;99620.41;4952599;28;45432;-72
2022/09/22 02:03:17;;;;;;;;;8.00;8.00;;;;;13.58;68.74;99624.91;4976537;28;45564;-72
2022/09/22 02:06:01;;;;;;;;;9.75;9.00;;;;;13.56;68.83;99626.78;4956785;28;47680;-72
2022/09/22 02:08:40;;;;;;;;;8.25;8.25;;;;;13.52;68.78;99623.41;4948536;28;45428;-71
2022/09/22 02:11:12;;;;;;;;;7.50;7.50;;;;;13.53;68.82;99618.97;4976824;28;45292;-72
2022/09/22 02:13:39;;;;;;;;;8.75;8.75;;;;;13.52;69.01;99626.06;4984422;28;45556;-72
2022/09/22 02:16:07;;;;;;;;;11.00;9.00;;;;;13.51;69.14;99626.13;4980759;28;46513;-71
2022/09/22 02:18:39;;;;;;;;;10.75;10.00;;;;;13.50;69.23;99627.06;4994427;28;45448;-72
2022/09/22 02:21:05;;;;;;;;;12.25;9.50;;;;;13.49;69.13;99620.91;4988077;28;45328;-72
2022/09/22 02:23:31;;;;;;;;;9.75;9.00;;;;;13.48;69.08;99618.31;4975464;28;45629;-72
2022/09/22 02:25:57;;;;;;;;;12.00;10.00;;;;;13.46;69.08;99622.81;4963486;28;46970;-72
2022/09/22 02:28:24;;;;;;;;;11.00;8.00;;;;;13.42;69.32;99622.06;4991760;28;45350;-71
2022/09/22 02:30:54;;;;;;;;;8.75;8.75;;;;;13.40;69.20;99618.66;4988411;28;45461;-72
2022/09/22 02:33:22;;;;;;;;;7.25;7.25;;;;;13.38;69.35;99606.41;4970735;28;45530;-72
2022/09/22 02:35:54;;;;;;;;;10.50;10.50;;;;;13.36;69.74;99611.78;4992521;28;46131;-72
2022/09/22 02:38:28;;;;;;;;;9.25;9.25;;;;;13.35;69.47;99610.06;4976397;28;45457;-72
2022/09/22 02:41:10;;;;;;;;;10.00;9.00;;;;;13.34;69.91;99607.47;4989291;28;45396;-72
2022/09/22 02:43:49;;;;;;;;;11.00;8.50;;;;;13.31;69.55;99607.59;4992865;28;45351;-72
2022/09/22 02:46:57;;;;;;;;;9.75;8.00;;;;;13.32;69.59;99610.19;4955453;28;48279;-71
2022/09/22 02:49:25;;;;;;;;;9.00;9.00;;;;;13.30;69.69;99608.53;4964964;28;46034;-72
2022/09/22 02:51:51;;;;;;;;;11.25;9.25;;;;;13.30;69.92;99605.88;4983978;28;45438;-72
2022/09/22 02:54:17;;;;;;;;;11.00;9.25;;;;;13.28;69.90;99608.56;4981306;28;45342;-72
2022/09/22 02:56:43;;;;;;;;;7.50;7.50;;;;;13.27;69.88;99604.22;4981157;28;46129;-71
2022/09/22 02:59:08;;;;;;;;;9.00;9.00;;;;;13.25;70.32;99608.72;4987955;28;45452;-71
2022/09/22 03:01:34;;;;;;;;;10.25;9.00;;;;;13.24;70.15;99607.84;4979424;28;45412;-72
2022/09/22 03:03:59;;;;;;;;;11.50;10.25;;;;;13.23;70.30;99602.66;4997317;28;45424;-72
2022/09/22 03:06:25;;;;;;;;;10.00;10.00;;;;;13.23;70.34;99610.59;4983453;28;45646;-72
2022/09/22 03:08:50;;;;;;;;;11.00;11.00;;;;;13.20;70.54;99602.78;4979500;28;46050;-72
2022/09/22 03:11:16;;;;;;;;;7.75;7.00;;;;;13.17;70.01;99603.75;4986103;28;45466;-72
2022/09/22 03:13:41;;;;;;;;;9.00;8.50;;;;;13.18;70.18;99607.28;4974319;28;45181;-72
2022/09/22 03:16:07;;;;;;;;;11.00;9.00;;;;;13.16;69.92;99606.47;4983370;28;45332;-71
2022/09/22 03:18:32;;;;;;;;;9.50;9.50;;;;;13.14;70.30;99606.50;4986901;28;45372;-72
2022/09/22 03:20:57;;;;;;;;;10.00;10.00;;;;;13.12;70.47;99611.00;4985966;28;45371;-72
2022/09/22 03:23:23;;;;;;;;;10.00;10.00;;;;;13.10;70.38;99607.53;4994134;28;45364;-72
2022/09/22 03:25:48;;;;;;;;;11.50;10.00;;;;;13.07;70.44;99609.50;4970366;28;47775;-72
2022/09/22 03:28:13;;;;;;;;;9.75;9.00;;;;;13.04;70.38;99610.47;4977059;28;45376;-71
2022/09/22 03:30:39;;;;;;;;;10.50;10.00;;;;;13.03;70.41;99613.19;4991286;28;45458;-72
2022/09/22 03:33:04;;;;;;;;;12.25;11.00;;;;;13.00;70.46;99608.88;4978838;28;45562;-72
2022/09/22 03:35:30;;;;;;;;;7.00;6.00;;;;;12.98;69.94;99617.81;4992064;28;45529;-71
2022/09/22 03:37:55;;;;;;;;;11.00;10.50;;;;;12.95;70.56;99610.84;4987933;28;45443;-71
2022/09/22 03:40:21;;;;;;;;;11.50;9.25;;;;;12.94;70.57;99617.06;4990467;28;45514;-71
2022/09/22 03:42:47;;;;;;;;;10.50;9.50;;;;;12.91;71.16;99614.53;4972188;28;45576;-72
2022/09/22 03:45:13;;;;;;;;;15.00;12.75;;;;;12.90;71.23;99612.84;4983462;28;46357;-71
2022/09/22 03:47:39;;;;;;;;;3.00;2.25;;;;;12.88;71.37;99618.19;4989734;28;45414;-72
2022/09/22 03:50:05;;;;;;;;;11.25;9.00;;;;;12.88;71.39;99626.13;4989622;28;45449;-72
2022/09/22 03:52:32;;;;;;;;;9.50;9.50;;;;;12.86;70.96;99612.09;4994662;28;45452;-72
2022/09/22 03:54:58;;;;;;;;;11.75;10.75;;;;;12.84;71.07;99621.88;4992705;28;46338;-72
2022/09/22 03:57:23;;;;;;;;;9.00;9.00;;;;;12.79;71.54;99613.28;4989766;28;45221;-72
2022/09/22 03:59:48;;;;;;;;;12.75;11.25;;;;;12.79;71.43;99620.34;4963026;28;45314;-72
2022/09/22 04:02:14;;;;;;;;;16.75;10.50;;;;;12.78;71.32;99618.63;4983136;28;45334;-71
2022/09/22 04:04:39;;;;;;;;;11.75;11.00;;;;;12.76;71.43;99625.75;4989294;28;45654;-72
2022/09/22 04:07:05;;;;;;;;;13.50;12.25;;;;;12.74;71.53;99612.59;4983615;28;45559;-72
2022/09/22 04:09:30;;;;;;;;;10.25;10.25;;;;;12.74;71.65;99617.88;4995708;28;45450;-72
2022/09/22 04:11:56;;;;;;;;;11.25;10.00;;;;;12.72;71.69;99616.25;4976209;28;45747;-72
2022/09/22 04:14:21;;;;;;;;;10.75;10.50;;;;;12.70;71.71;99621.59;4992264;28;45394;-72
2022/09/22 04:16:47;;;;;;;;;10.00;9.00;;;;;12.65;71.98;99612.97;4978547;28;45391;-71
2022/09/22 04:19:12;;;;;;;;;9.50;8.50;;;;;12.63;71.93;99613.97;4990417;28;45841;-71
2022/09/22 04:21:38;;;;;;;;;12.00;11.00;;;;;12.59;72.25;99616.72;4965002;28;45979;-71
2022/09/22 04:24:09;;;;;;;;;9.75;7.50;;;;;12.58;72.39;99622.06;4992632;28;45838;-71
2022/09/22 04:26:34;;;;;;;;;10.75;10.75;;;;;12.56;72.08;99621.31;4987904;28;45440;-72
2022/09/22 04:29:00;;;;;;;;;10.25;10.25;;;;;12.53;71.97;99619.63;4994551;28;45286;-71
2022/09/22 04:31:25;;;;;;;;;10.00;10.00;;;;;12.51;71.79;99624.13;4972422;28;45517;-71
2022/09/22 04:33:51;;;;;;;;;9.75;9.75;;;;;12.51;71.53;99620.63;4984121;28;45437;-71
2022/09/22 04:36:16;;;;;;;;;12.00;12.00;;;;;12.50;71.33;99613.59;4967959;28;45625;-72
2022/09/22 04:38:42;;;;;;;;;13.00;10.50;;;;;12.48;71.42;99615.44;4988811;28;45482;-72
2022/09/22 04:41:07;;;;;;;;;11.00;11.00;;;;;12.48;71.35;99615.44;4987194;28;45410;-72
2022/09/22 04:43:32;;;;;;;;;11.50;11.50;;;;;12.45;71.24;99616.41;4981207;28;45450;-72
2022/09/22 04:45:58;;;;;;;;;12.00;12.00;;;;;12.46;70.91;99617.28;4984710;28;45370;-72
2022/09/22 04:48:23;;;;;;;;;13.50;12.50;;;;;12.42;71.17;99613.88;4981315;28;45601;-72
2022/09/22 04:50:48;;;;;;;;;23.00;22.00;;;;;12.38;71.21;99607.03;4991065;28;45356;-71
2022/09/22 04:53:14;;;;;;;;;11.00;9.75;;;;;12.38;71.39;99608.81;4995044;28;45424;-71
2022/09/22 04:55:40;;;;;;;;;11.00;10.25;;;;;12.35;71.34;99609.78;4990442;28;45383;-72
2022/09/22 04:58:06;;;;;;;;;8.25;8.25;;;;;12.33;71.21;99605.47;4995059;28;45701;-71
2022/09/22 05:00:34;;;;;;;;;11.50;11.25;;;;;12.31;71.05;99616.09;4988924;28;45448;-72
2022/09/22 05:03:02;;;;;;;;;10.00;10.00;;;;;12.29;71.19;99609.16;4988416;28;45568;-72
2022/09/22 05:05:28;;;;;;;;;14.75;12.25;;;;;12.28;71.20;99610.94;4956433;28;45408;-72
2022/09/22 05:07:54;;;;;;;;;10.50;9.50;;;;;12.27;71.17;99614.50;4961870;28;45479;-71
2022/09/22 05:10:23;;;;;;;;;11.50;11.25;;;;;12.27;70.90;99618.91;4986229;28;45564;-72
2022/09/22 05:12:50;;;;;;;;;9.75;9.75;;;;;12.24;70.86;99619.91;4958812;28;47618;-71
2022/09/22 05:15:15;;;;;;;;;10.25;10.25;;;;;12.21;70.86;99612.97;4978932;28;45603;-72
2022/09/22 05:17:45;;;;;;;;;10.75;9.00;;;;;12.21;70.77;99620.91;4986485;28;45484;-71
2022/09/22 05:20:11;;;;;;;;;11.75;11.00;;;;;12.19;70.76;99624.53;4995140;28;45591;-72
2022/09/22 05:22:39;;;;;;;;;13.25;10.00;;;;;12.18;70.53;99628.94;4978691;28;46290;-72
2022/09/22 05:25:10;;;;;;;;;9.25;9.25;;;;;12.19;70.92;99627.16;4989929;28;45359;-71
2022/09/22 05:27:36;;;;;;;;;13.00;10.25;;;;;12.17;70.92;99627.22;4982451;28;45442;-73
2022/09/22 05:30:04;;;;;;;;;12.00;10.50;;;;;12.18;70.97;99631.59;4991421;28;45150;-71
2022/09/22 05:32:29;;;;;;;;;12.25;11.25;;;;;12.18;70.97;99630.72;4974462;28;46363;-71
2022/09/22 05:34:55;;;;;;;;;12.75;11.00;;;;;12.19;70.89;99637.75;4983105;28;45332;-71
2022/09/22 05:37:20;;;;;;;;;13.00;12.50;;;;;12.18;70.93;99633.38;4982136;28;46054;-71
2022/09/22 05:39:45;;;;;;;;;13.75;13.75;;;;;12.19;70.81;99635.09;4993328;28;45423;-71
2022/09/22 05:42:11;;;;;;;;;13.25;12.50;;;;;12.20;70.75;99635.03;4979179;28;46313;-71
2022/09/22 05:44:36;;;;;;;;;12.25;12.00;;;;;12.20;70.38;99639.47;4997024;28;45634;-73
2022/09/22 05:47:01;;;;;;;;;12.00;12.00;;;;;12.20;70.83;99637.69;4991726;28;45837;-74
2022/09/22 05:49:27;;;;;;;;;16.00;12.25;;;;;12.20;70.51;99635.03;4984283;28;45392;-74
2022/09/22 05:51:56;;;;;;;;;13.25;12.75;;;;;12.22;70.28;99638.50;4990916;28;46653;-72
2022/09/22 05:54:21;;;;;;;;;14.00;12.75;;;;;12.23;70.13;99640.19;4962148;28;45464;-73
2022/09/22 05:56:47;;;;;;;;;12.00;10.50;;;;;12.24;70.37;99635.75;4986698;28;45396;-72
2022/09/22 05:59:12;;;;;;;;;12.00;10.00;;;;;12.27;70.44;99642.72;4996523;28;45507;-72
2022/09/22 06:01:38;;;;;;;;;12.25;12.25;;;;;12.29;70.36;99638.22;4987197;28;45430;-73
2022/09/22 06:04:03;;;;;;;;;12.50;11.25;;;;;12.29;70.29;99631.16;4994807;28;45202;-72
2022/09/22 06:06:29;;;;;;;;;12.75;11.50;;;;;12.31;70.25;99639.03;4982559;28;45428;-71
2022/09/22 06:08:54;;;;;;;;;17.25;16.75;;;;;12.32;70.22;99641.63;4972879;28;45773;-71
2022/09/22 06:11:19;;;;;;;;;14.75;13.25;;;;;12.34;70.57;99641.56;4989146;28;45944;-73
2022/09/22 06:13:49;;;;;;;;;15.75;15.75;;;;;12.35;70.41;99645.94;4996805;28;45373;-73
2022/09/22 06:16:15;;;;;;;;;14.25;14.00;;;;;12.35;70.51;99645.94;4964906;28;45434;-72
2022/09/22 06:18:40;;;;;;;;;16.25;16.25;;;;;12.36;70.35;99645.03;4982484;28;45537;-73
2022/09/22 06:21:07;;;;;;;;;20.75;16.50;;;;;12.36;70.67;99637.94;4982795;28;46082;-72
2022/09/22 06:23:32;;;;;;;;;14.00;13.75;;;;;12.37;70.71;99638.81;5006378;28;45405;-73
2022/09/22 06:25:58;;;;;;;;;19.25;17.00;;;;;12.36;70.55;99645.88;4998116;28;45443;-73
2022/09/22 06:28:24;;;;;;;;;14.00;13.25;;;;;12.37;70.50;99647.59;4986086;28;45376;-73
2022/09/22 06:30:50;;;;;;;;;14.75;12.75;;;;;12.37;70.54;99650.25;4973490;28;47823;-72
2022/09/22 06:33:17;;;;;;;;;17.33;13.33;;;;;12.37;70.49;99644.09;4961697;28;45575;-72
2022/09/22 06:35:44;;;;;;;;;12.67;11.00;;;;;12.36;70.36;99645.88;4981247;28;45375;-73
2022/09/22 06:38:15;;;;;;;;;10.75;10.75;;;;;12.37;70.83;99652.03;4993401;28;45419;-72
2022/09/22 06:40:42;;;;;;;;;18.00;15.00;;;;;12.40;70.63;99649.28;4985925;28;46113;-72
2022/09/22 06:43:16;;;;;;;;;17.25;15.75;;;;;12.41;70.30;99650.97;4985720;28;45407;-72
2022/09/22 06:45:41;;;;;;;;;14.00;12.50;;;;;12.42;70.35;99653.56;4982625;28;45445;-72
2022/09/22 06:48:09;;;;;;;;;12.75;12.75;;;;;12.42;70.29;99653.56;4982630;28;45443;-72
2022/09/22 06:50:34;;;;;;;;;16.33;14.67;;;;;12.44;70.51;99656.13;4966602;28;47086;-72
2022/09/22 06:53:02;;;;;;;;;42.00;33.67;;;;;12.47;70.40;99659.53;4981793;28;45416;-67
2022/09/22 06:55:28;;;;;;;;;31.67;27.00;;;;;12.55;70.33;99657.47;4974343;28;45377;-59
2022/09/22 06:57:58;;;;;;;;;19.50;16.50;;;;;12.62;70.40;99650.13;4979409;28;45469;-59
2022/09/22 07:00:31;;;;;;;;;11.25;10.25;;;;;12.66;70.42;99651.75;4988072;28;45712;-59
2022/09/22 07:03:12;;;;;;;;;17.50;13.00;;;;;12.74;70.12;99652.28;4981151;28;45472;-59
2022/09/22 07:05:37;;;;;;;;;14.25;14.25;;;;;12.81;70.17;99643.19;4968268;28;45379;-59
2022/09/22 07:08:04;;;;;;;;;18.00;15.75;;;;;12.90;70.14;99655.19;4987278;28;45337;-59
2022/09/22 07:10:30;;;;;;;;;14.25;12.75;;;;;12.97;69.63;99653.13;4989495;28;46331;-59
2022/09/22 07:12:59;;;;;;;;;12.00;12.00;;;;;13.05;69.20;99645.75;4981607;28;45542;-60
2022/09/22 07:15:24;;;;;;;;;15.25;13.75;;;;;13.09;69.36;99645.53;4981024;28;45610;-59
2022/09/22 07:17:52;;;;;;;;;13.75;11.25;;;;;13.16;69.06;99651.47;4981683;28;45494;-59
2022/09/22 07:20:20;;;;;;;;;13.00;13.00;;;;;13.21;68.80;99641.56;4990603;28;46551;-59
2022/09/22 07:22:46;;;;;;;;;15.00;13.25;;;;;13.25;68.60;99649.28;4980200;28;45573;-59
2022/09/22 07:25:12;;;;;;;;;14.50;12.50;;;;;13.30;68.32;99654.41;4989639;28;45525;-59
2022/09/22 07:27:38;;;;;;;;;12.75;12.50;;;;;13.35;68.42;99646.25;4968540;28;45407;-59
2022/09/22 07:30:03;;;;;;;;;14.75;12.75;;;;;13.41;68.35;99654.78;4992235;28;45585;-59
2022/09/22 07:32:34;;;;;;;;;16.00;14.25;;;;;13.49;67.85;99652.69;4984289;28;45438;-59
2022/09/22 07:35:00;;;;;;;;;21.67;19.00;;;;;13.54;67.83;99647.19;4993354;28;45404;-59
2022/09/22 07:37:28;;;;;;;;;17.00;14.00;;;;;13.60;67.62;99649.56;4970803;28;45588;-59
2022/09/22 07:39:54;;;;;;;;;13.75;13.75;;;;;13.68;67.40;99646.59;4986857;28;45625;-59
2022/09/22 07:42:20;;;;;;;;;20.75;20.00;;;;;13.74;67.31;99651.63;4971403;28;45400;-59
2022/09/22 07:50:16;;;;;;;;;20.25;17.25;;;;;13.91;66.75;99654.34;4987524;28;45853;-59
2022/09/22 07:52:41;;;;;;;;;21.25;17.75;;;;;13.99;66.40;99652.22;4971110;28;45343;-59
2022/09/22 07:55:07;;;;;;;;;17.25;16.00;;;;;14.08;66.21;99650.94;4989033;28;45561;-59
2022/09/22 07:57:32;;;;;;;;;13.25;11.25;;;;;14.16;66.12;99651.44;4983200;28;45638;-59
2022/09/22 07:59:58;;;;;;;;;14.00;13.75;;;;;14.22;65.40;99654.69;4992664;28;45455;-59
2022/09/22 08:02:26;;;;;;;;;13.75;12.00;;;;;14.27;65.38;99652.66;4985725;28;45524;-59
2022/09/22 08:04:51;;;;;;;;;12.50;11.00;;;;;14.35;64.99;99651.47;4989798;28;45461;-59
2022/09/22 08:07:17;;;;;;;;;13.25;12.00;;;;;14.42;64.57;99650.25;4983825;28;45573;-59
2022/09/22 08:09:42;;;;;;;;;12.50;12.50;;;;;14.47;64.51;99645.59;4994648;28;46548;-59
2022/09/22 08:12:08;;;;;;;;;17.25;15.75;;;;;14.52;64.08;99640.94;4974364;28;45390;-59
2022/09/22 08:14:34;;;;;;;;;12.50;9.50;;;;;14.59;63.84;99642.34;4991804;28;45511;-58
2022/09/22 08:16:59;;;;;;;;;11.50;11.50;;;;;14.66;63.63;99638.47;4974777;28;45481;-59
2022/09/22 08:19:25;;;;;;;;;14.00;12.50;;;;;14.73;63.71;99631.94;4990197;28;45466;-59
2022/09/22 08:21:52;;;;;;;;;14.50;14.50;;;;;14.80;63.28;99627.19;4977898;28;45474;-59
2022/09/22 08:24:21;;;;;;;;;8.25;8.25;;;;;14.84;62.96;99629.63;4991273;28;45446;-59
2022/09/22 08:26:49;;;;;;;;;14.75;11.00;;;;;14.88;62.67;99631.19;4983911;28;45625;-60
2022/09/22 08:29:14;;;;;;;;;12.00;12.00;;;;;14.93;62.49;99634.47;4994041;28;45437;-58
2022/09/22 08:31:41;;;;;;;;;11.25;11.25;;;;;15.01;62.39;99642.06;4973451;28;45443;-58
2022/09/22 08:34:07;;;;;;;;;12.00;12.00;;;;;15.06;62.27;99642.69;4983668;28;45384;-58
2022/09/22 08:36:33;;;;;;;;;13.00;13.00;;;;;15.14;62.48;99634.31;4976193;28;45429;-58
2022/09/22 08:39:00;;;;;;;;;13.00;11.25;;;;;15.19;61.76;99632.31;4981684;28;46537;-58
2022/09/22 08:41:44;;;;;;;;;12.50;12.00;;;;;15.26;61.93;99629.25;4976331;28;45727;-58
2022/09/22 08:44:09;;;;;;;;;11.50;11.50;;;;;15.34;61.61;99626.22;4970606;28;45321;-59
2022/09/22 08:46:40;;;;;;;;;12.50;12.00;;;;;15.40;61.41;99631.22;4990318;28;45405;-58
2022/09/22 08:51:55;;;;;;;;;9.40;9.40;;;;;15.53;61.30;99636.75;4976682;28;45413;-58
2022/09/22 08:54:34;;;;;;;;;15.00;13.75;;;;;15.56;60.90;99629.50;4985659;28;45412;-58
2022/09/22 08:57:22;;;;;;;;;14.75;11.25;;;;;15.63;60.95;99630.03;4977677;28;45480;-58
2022/09/22 09:00:04;;;;;;;;;11.25;11.00;;;;;15.72;60.60;99631.38;4985501;28;45988;-58
2022/09/22 09:02:49;;;;;;;;;13.00;8.50;;;;;15.79;60.32;99627.41;4986255;28;45469;-58
2022/09/22 09:05:54;;;;;;;;;12.25;11.00;;;;;15.86;60.02;99621.72;4976478;28;45578;-58
2022/09/22 09:08:46;;;;;;;;;12.25;10.75;;;;;15.93;59.80;99617.75;4975568;28;45380;-57
2022/09/22 09:11:48;;;;;;;;;9.75;9.75;;;;;16.02;60.06;99622.59;4982947;28;46489;-58
2022/09/22 09:14:31;;;;;;;;;16.00;14.50;;;;;16.11;60.06;99621.22;4964853;28;45562;-58
2022/09/22 09:17:23;;;;;;;;;17.50;12.00;;;;;16.16;59.59;99620.97;4979194;28;45391;-58
2022/09/22 09:20:00;;;;;;;;;14.50;13.50;;;;;16.22;59.45;99612.66;4976447;28;45534;-58
2022/09/22 09:22:39;;;;;;;;;12.25;11.50;;;;;16.29;59.18;99609.56;4976996;28;45504;-58
2022/09/22 09:25:21;;;;;;;;;12.00;10.75;;;;;16.36;59.47;99608.28;4973478;28;45479;-58
2022/09/22 09:27:53;;;;;;;;;11.50;11.00;;;;;16.42;59.17;99604.44;4992172;28;45291;-58
2022/09/22 09:30:20;;;;;;;;;10.00;10.00;;;;;16.47;58.56;99598.84;4982712;28;45420;-58
2022/09/22 09:33:39;;;;;;;;;13.25;10.50;;;;;16.53;58.22;99590.53;4994682;28;45629;-58
2022/09/22 09:36:12;;;;;;;;;11.75;9.25;;;;;16.62;58.04;99590.84;4966463;28;45525;-57
2022/09/22 09:38:46;;;;;;;;;11.75;11.75;;;;;16.68;58.47;99587.00;4981640;28;45372;-58
2022/09/22 09:41:17;;;;;;;;;9.25;9.25;;;;;16.73;58.02;99584.94;4984508;28;45284;-58
2022/09/22 09:43:44;;;;;;;;;15.00;11.75;;;;;16.78;57.67;99579.34;4983567;28;46566;-58
2022/09/22 09:46:34;;;;;;;;;11.00;8.40;;;;;16.85;57.86;99575.38;4986447;28;45484;-58
2022/09/22 09:49:34;;;;;;;;;10.25;10.25;;;;;16.90;57.54;99568.00;4985807;28;45361;-58
2022/09/22 09:52:02;;;;;;;;;12.00;11.00;;;;;16.96;57.10;99570.28;4901088;28;45481;-58
2022/09/22 09:54:28;;;;;;;;;8.75;8.00;;;;;17.03;56.69;99566.31;4975450;28;46457;-58
2022/09/22 09:57:16;;;;;;;;;7.50;7.50;;;;;17.08;56.46;99565.09;4984001;28;45390;-58
2022/09/22 10:02:34;;;;;;;;;7.50;6.50;;;;;17.22;55.44;99555.41;4990140;28;45483;-58
2022/09/22 10:05:21;;;;;;;;;11.50;8.00;;;;;17.27;55.09;99550.63;4993028;28;45401;-57
2022/09/22 10:07:57;;;;;;;;;8.00;7.60;;;;;17.33;55.02;99552.94;4963102;28;45805;-57
2022/09/22 10:10:32;;;;;;;;;14.75;11.50;;;;;17.41;54.85;99550.69;4992141;28;45591;-59
2022/09/22 10:13:03;;;;;;;;;7.00;7.00;;;;;17.50;54.51;99543.91;4981677;28;45451;-59
2022/09/22 10:15:34;;;;;;;;;9.25;8.00;;;;;17.57;54.22;99540.78;4984830;28;45579;-60
2022/09/22 10:18:00;;;;;;;;;10.20;9.00;;;;;17.64;54.20;99539.47;4982114;28;45444;-59
2022/09/22 10:20:32;;;;;;;;;7.25;7.25;;;;;17.70;54.46;99538.25;4983549;28;45442;-59
2022/09/22 10:23:19;;;;;;;;;8.25;8.25;;;;;17.77;53.87;99537.75;4971198;28;45539;-58
2022/09/22 10:25:45;;;;;;;;;9.25;9.25;;;;;17.79;53.26;99540.31;4983353;28;45406;-58
2022/09/22 10:28:18;;;;;;;;;9.25;9.25;;;;;17.76;53.26;99533.38;4975322;28;45375;-58
2022/09/22 10:30:57;;;;;;;;;6.75;6.75;;;;;17.74;53.45;99532.63;4985540;28;45363;-59
2022/09/22 10:33:23;;;;;;;;;8.00;7.75;;;;;17.75;53.01;99520.16;4969514;28;45542;-59
2022/09/22 10:36:08;;;;;;;;;11.75;9.25;;;;;17.77;53.05;99516.41;4982869;28;46116;-59
2022/09/22 10:38:38;;;;;;;;;8.60;8.20;;;;;17.84;53.30;99510.69;4974297;28;45593;-58
2022/09/22 10:41:13;;;;;;;;;14.00;9.75;;;;;17.93;53.13;99512.78;4980903;28;45398;-59
2022/09/22 10:43:51;;;;;;;;;8.50;8.50;;;;;17.98;53.25;99508.84;4980886;28;45474;-59
2022/09/22 10:46:22;;;;;;;;;9.00;9.00;;;;;18.03;52.87;99504.09;4972539;28;46576;-59
2022/09/22 10:48:56;;;;;;;;;11.60;11.40;;;;;18.06;52.62;99497.72;4981401;28;45437;-59
2022/09/22 10:51:40;;;;;;;;;7.50;7.50;;;;;18.12;53.03;99499.97;4978169;28;45436;-59
2022/09/22 10:54:27;;;;;;;;;12.25;10.00;;;;;18.19;52.79;99495.94;4986246;28;45336;-59
2022/09/22 10:56:56;;;;;;;;;15.50;13.00;;;;;18.28;53.35;99486.47;4980619;28;45705;-59
2022/09/22 10:59:33;;;;;;;;;7.40;7.40;;;;;18.35;52.75;99485.13;4989053;28;45466;-59
2022/09/22 11:02:24;;;;;;;;;10.25;9.00;;;;;18.43;53.01;99488.16;4976186;28;45353;-59
2022/09/22 11:04:55;;;;;;;;;10.00;8.25;;;;;18.49;52.72;99479.72;4972959;28;45428;-60
2022/09/22 11:13:57;;;;;;;;;11.25;8.25;;;;;18.70;52.42;99464.94;4970619;28;45723;-62
2022/09/22 11:17:00;;;;;;;;;7.00;7.00;;;;;18.76;52.29;99469.91;4972401;28;45449;-59
2022/09/22 11:19:32;;;;;;;;;11.25;10.25;;;;;18.81;52.31;99462.41;4939881;28;45472;-59
2022/09/22 11:22:32;;;;;;;;;7.60;7.60;;;;;18.88;52.66;99472.69;4970377;28;45552;-60
2022/09/22 11:25:01;;;;;;;;;9.00;8.00;;;;;18.93;52.55;99466.06;4949991;28;45411;-59
2022/09/22 11:28:12;;;;;;;;;9.75;9.75;;;;;18.97;51.78;99464.88;4971644;28;45537;-60
2022/09/22 11:31:04;;;;;;;;;8.25;7.75;;;;;19.05;51.29;99459.00;4951836;28;45505;-59
2022/09/22 11:33:30;;;;;;;;;10.40;8.40;;;;;19.12;51.32;99457.59;4965248;28;45518;-59
2022/09/22 11:35:58;;;;;;;;;0.25;0.25;;;;;19.16;50.77;99454.63;4983398;28;45494;-59
2022/09/22 11:38:38;;;;;;;;;7.75;7.50;;;;;19.19;51.14;99448.22;4973961;28;45310;-60
2022/09/22 11:41:20;;;;;;;;;8.60;8.40;;;;;19.27;50.35;99448.50;4979928;28;45543;-60
2022/09/22 11:44:06;;;;;;;;;9.00;8.80;;;;;19.35;50.42;99437.28;4981488;28;45396;-59
2022/09/22 11:46:55;;;;;;;;;10.25;8.50;;;;;19.37;50.46;99435.34;4969078;28;45428;-59
2022/09/22 11:49:26;;;;;;;;;10.25;8.50;;;;;19.41;50.58;99431.50;4977488;28;45407;-59
2022/09/22 11:51:58;;;;;;;;;9.75;9.00;;;;;19.47;50.73;99431.91;4975005;28;46435;-60
2022/09/22 11:54:31;;;;;;;;;8.60;8.00;;;;;19.52;50.60;99421.78;4991028;28;45472;-58
2022/09/22 11:57:05;;;;;;;;;9.00;7.00;;;;;19.57;50.47;99413.44;4978088;28;45467;-58
2022/09/22 11:59:41;;;;;;;;;10.25;8.00;;;;;19.63;50.58;99402.28;4977244;28;45473;-59